createdAt,value
2022-11-29T00:01:32.042Z,74.13
2022-11-29T00:04:02.132Z,78.60
2022-11-29T00:06:31.975Z,74.47
2022-11-29T00:09:02.461Z,64.27
2022-11-29T00:11:50.938Z,71.30
2022-11-29T00:14:20.257Z,65.93
2022-11-29T00:16:52.099Z,69.97
2022-11-29T00:19:21.866Z,71.00
2022-11-29T00:21:49.917Z,66.33
2022-11-29T00:24:17.996Z,75.00
2022-11-29T00:26:46.061Z,58.83
2022-11-29T00:29:14.244Z,67.70
2022-11-29T00:31:42.899Z,62.73
2022-11-29T00:34:13.000Z,67.97
2022-11-29T00:36:42.615Z,57.70
2022-11-29T00:39:12.196Z,54.83
2022-11-29T00:41:40.317Z,61.27
2022-11-29T00:44:08.649Z,54.30
2022-11-29T00:46:36.977Z,56.30
2022-11-29T00:49:05.517Z,58.23
2022-11-29T00:51:33.903Z,55.53
2022-11-29T00:54:03.334Z,65.50
2022-11-29T00:56:31.499Z,59.80
2022-11-29T00:58:59.618Z,64.20
2022-11-29T01:01:27.674Z,59.43
2022-11-29T01:03:55.724Z,58.10
2022-11-29T01:06:23.739Z,51.90
2022-11-29T01:08:51.880Z,58.57
2022-11-29T01:11:23.442Z,56.10
2022-11-29T01:13:54.455Z,55.37
2022-11-29T01:16:22.843Z,61.97
2022-11-29T01:18:50.872Z,61.70
2022-11-29T01:21:21.235Z,62.77
2022-11-29T01:23:50.683Z,61.23
2022-11-29T01:26:22.027Z,57.43
2022-11-29T01:28:51.888Z,63.40
2022-11-29T01:31:22.333Z,60.27
2022-11-29T01:33:53.405Z,58.03
2022-11-29T01:36:21.523Z,62.10
2022-11-29T01:38:49.589Z,73.60
2022-11-29T01:41:23.756Z,81.90
2022-11-29T01:44:01.594Z,63.03
2022-11-29T01:46:31.631Z,63.03
2022-11-29T01:49:04.647Z,73.47
2022-11-29T01:51:35.496Z,75.53
2022-11-29T01:54:03.761Z,70.07
2022-11-29T01:56:35.499Z,66.97
2022-11-29T01:59:07.367Z,69.80
2022-11-29T02:01:36.149Z,75.07
2022-11-29T02:04:04.554Z,74.17
2022-11-29T02:06:32.870Z,73.97
2022-11-29T02:09:00.968Z,69.73
2022-11-29T02:11:53.363Z,70.20
2022-11-29T02:14:41.063Z,79.97
2022-11-29T02:17:18.717Z,78.23
2022-11-29T02:20:13.154Z,75.13
2022-11-29T02:22:47.502Z,75.90
2022-11-29T02:25:31.268Z,72.90
2022-11-29T02:28:53.269Z,76.77
2022-11-29T02:31:56.209Z,74.93
2022-11-29T02:34:50.559Z,80.70
2022-11-29T02:37:33.913Z,77.07
2022-11-29T02:40:15.677Z,87.17
2022-11-29T02:43:25.143Z,87.70
2022-11-29T02:46:17.150Z,91.63
2022-11-29T02:49:08.702Z,79.57
2022-11-29T02:59:35.339Z,95.80
2022-11-29T03:07:42.464Z,119.00
2022-11-29T03:10:21.800Z,100.20
2022-11-29T03:12:53.085Z,99.67
2022-11-29T03:15:30.373Z,104.07
2022-11-29T03:18:10.519Z,88.03
2022-11-29T03:20:52.738Z,84.60
2022-11-29T03:23:25.143Z,82.97
2022-11-29T03:25:58.644Z,79.27
2022-11-29T03:28:32.197Z,75.53
2022-11-29T03:35:00.617Z,83.97
2022-11-29T03:37:58.831Z,84.60
2022-11-29T03:40:32.550Z,87.23
2022-11-29T03:43:05.475Z,82.43
2022-11-29T03:45:38.114Z,75.97
2022-11-29T03:48:10.366Z,77.30
2022-11-29T03:50:43.639Z,72.00
2022-11-29T03:53:18.305Z,84.33
2022-11-29T03:55:57.979Z,84.53
2022-11-29T03:58:38.534Z,104.17
2022-11-29T04:02:03.889Z,93.97
2022-11-29T04:04:58.816Z,92.33
2022-11-29T04:07:48.137Z,97.23
2022-11-29T04:10:35.451Z,86.67
2022-11-29T04:13:37.024Z,100.70
2022-11-29T04:16:50.804Z,109.57
2022-11-29T04:19:58.255Z,90.03
2022-11-29T04:23:10.581Z,95.00
2022-11-29T04:26:04.418Z,105.93
2022-11-29T04:29:00.830Z,118.63
2022-11-29T04:39:17.348Z,100.90
2022-11-29T04:42:18.653Z,93.60
2022-11-29T04:44:59.669Z,96.37
2022-11-29T04:47:54.780Z,106.20
2022-11-29T04:50:33.607Z,89.73
2022-11-29T04:53:25.926Z,104.97
2022-11-29T04:56:03.213Z,100.57
2022-11-29T04:58:39.662Z,103.20
2022-11-29T05:01:19.615Z,94.50
2022-11-29T05:03:57.056Z,110.93
2022-11-29T05:06:30.968Z,105.90
2022-11-29T05:09:08.129Z,98.43
2022-11-29T05:11:55.718Z,104.53
2022-11-29T05:14:41.777Z,96.00
2022-11-29T05:17:34.036Z,95.17
2022-11-29T05:20:25.291Z,101.27
2022-11-29T05:23:08.399Z,95.57
2022-11-29T05:25:46.279Z,86.83
2022-11-29T05:28:22.049Z,82.23
2022-11-29T05:31:21.486Z,90.37
2022-11-29T05:34:09.636Z,89.17
2022-11-29T05:36:42.363Z,80.83
2022-11-29T05:39:34.672Z,80.37
2022-11-29T05:42:20.237Z,88.90
2022-11-29T05:44:59.130Z,92.83
2022-11-29T05:47:33.482Z,87.33
2022-11-29T05:50:08.582Z,85.83
2022-11-29T05:52:47.419Z,80.17
2022-11-29T05:55:27.210Z,74.40
2022-11-29T05:58:00.148Z,83.33
2022-11-29T06:00:38.485Z,89.33
2022-11-29T06:03:15.662Z,87.20
2022-11-29T06:05:49.433Z,85.43
2022-11-29T06:08:30.644Z,86.40
2022-11-29T06:11:06.322Z,92.47
2022-11-29T06:13:49.832Z,80.07
2022-11-29T06:16:39.259Z,83.87
2022-11-29T06:19:45.157Z,75.73
2022-11-29T06:22:31.535Z,76.97
2022-11-29T06:25:17.153Z,72.50
2022-11-29T06:28:09.904Z,83.80
2022-11-29T06:31:00.744Z,75.13
2022-11-29T06:33:37.411Z,70.77
2022-11-29T06:36:18.532Z,80.97
2022-11-29T06:38:46.973Z,69.87
2022-11-29T06:41:19.660Z,81.17
2022-11-29T06:43:48.547Z,70.97
2022-11-29T06:46:28.134Z,72.87
2022-11-29T06:49:04.337Z,72.23
2022-11-29T06:51:40.348Z,79.80
2022-11-29T06:54:24.747Z,76.90
2022-11-29T06:56:59.602Z,71.20
2022-11-29T06:59:42.356Z,74.47
2022-11-29T07:02:32.797Z,83.23
2022-11-29T07:05:17.168Z,73.90
2022-11-29T07:07:47.180Z,83.53
2022-11-29T07:10:18.150Z,80.90
2022-11-29T07:12:50.781Z,70.07
2022-11-29T07:15:20.651Z,62.83
2022-11-29T07:18:04.863Z,66.87
2022-11-29T07:20:42.742Z,72.80
2022-11-29T07:23:24.298Z,70.33
2022-11-29T07:26:05.439Z,69.43
2022-11-29T07:28:44.861Z,59.73
2022-11-29T07:31:20.513Z,64.93
2022-11-29T07:33:59.838Z,56.53
2022-11-29T07:36:37.558Z,49.23
2022-11-29T07:39:19.241Z,52.87
2022-11-29T07:41:56.697Z,47.63
2022-11-29T07:44:31.540Z,50.80
2022-11-29T07:47:02.576Z,48.23
2022-11-29T07:49:30.602Z,47.90
2022-11-29T07:52:00.106Z,49.73
2022-11-29T07:54:28.263Z,42.67
2022-11-29T08:04:42.681Z,44.27
2022-11-29T08:07:12.422Z,38.10
2022-11-29T08:09:40.474Z,35.03
2022-11-29T08:12:08.690Z,37.90
2022-11-29T08:14:36.818Z,28.83
2022-11-29T08:17:04.940Z,31.90
2022-11-29T08:19:33.039Z,31.73
2022-11-29T08:22:01.150Z,31.90
2022-11-29T08:24:30.588Z,30.37
2022-11-29T08:26:58.652Z,32.77
2022-11-29T08:29:29.026Z,30.53
2022-11-29T08:31:57.349Z,29.73
2022-11-29T08:34:26.163Z,31.30
2022-11-29T08:36:56.243Z,32.70
2022-11-29T08:39:24.867Z,30.73
2022-11-29T08:41:54.278Z,31.83
2022-11-29T08:44:22.299Z,35.10
2022-11-29T08:47:07.591Z,32.90
2022-11-29T08:49:35.616Z,33.13
2022-11-29T08:52:21.156Z,30.67
2022-11-29T08:54:49.172Z,35.67
2022-11-29T08:57:39.939Z,31.77
2022-11-29T09:00:07.986Z,37.83
2022-11-29T09:02:37.577Z,31.93
2022-11-29T09:05:06.423Z,30.53
2022-11-29T09:07:34.728Z,27.43
2022-11-29T09:10:05.080Z,33.70
2022-11-29T09:12:35.189Z,34.03
2022-11-29T09:15:03.358Z,33.37
2022-11-29T09:17:31.428Z,38.50
2022-11-29T09:19:59.470Z,32.00
2022-11-29T09:22:27.556Z,31.30
2022-11-29T09:24:55.661Z,31.53
2022-11-29T09:27:23.682Z,30.43
2022-11-29T09:29:53.104Z,30.33
2022-11-29T09:32:21.132Z,34.50
2022-11-29T09:34:49.225Z,32.23
2022-11-29T09:37:17.346Z,26.27
2022-11-29T09:39:45.621Z,29.47
2022-11-29T09:42:28.594Z,22.40
2022-11-29T09:45:05.220Z,28.57
2022-11-29T09:47:58.097Z,26.87
2022-11-29T09:50:32.500Z,23.73
2022-11-29T09:53:17.696Z,25.57
2022-11-29T09:56:01.079Z,25.80
2022-11-29T09:58:35.059Z,23.97
2022-11-29T10:01:11.399Z,21.80
2022-11-29T10:03:42.957Z,24.03
2022-11-29T10:06:20.248Z,25.63
2022-11-29T10:08:52.830Z,24.47
2022-11-29T10:11:24.676Z,28.33
2022-11-29T10:13:58.873Z,27.10
2022-11-29T10:16:38.212Z,29.67
2022-11-29T10:19:11.898Z,32.47
2022-11-29T10:21:45.687Z,25.33
2022-11-29T10:24:18.381Z,27.03
2022-11-29T10:26:47.446Z,35.53
2022-11-29T10:40:57.184Z,26.47
2022-11-29T10:43:26.174Z,25.50
2022-11-29T10:45:57.029Z,25.93
2022-11-29T10:48:31.726Z,28.83
2022-11-29T10:51:00.491Z,28.23
2022-11-29T10:53:32.167Z,25.23
2022-11-29T10:56:05.094Z,32.77
2022-11-29T10:58:33.464Z,22.10
2022-11-29T11:01:06.676Z,32.37
2022-11-29T11:03:41.426Z,25.97
2022-11-29T11:06:15.492Z,24.00
2022-11-29T11:08:46.029Z,35.47
2022-11-29T11:11:15.831Z,27.90
2022-11-29T11:13:43.946Z,29.87
2022-11-29T11:16:18.008Z,29.83
2022-11-29T11:18:48.092Z,25.83
2022-11-29T11:21:19.122Z,34.10
2022-11-29T11:23:54.531Z,38.97
2022-11-29T11:26:25.700Z,33.97
2022-11-29T11:29:01.477Z,38.00
2022-11-29T11:31:34.269Z,38.10
2022-11-29T11:34:26.352Z,32.37
2022-11-29T11:36:55.070Z,32.43
2022-11-29T11:39:24.473Z,30.07
2022-11-29T11:42:11.722Z,36.57
2022-11-29T11:44:49.384Z,28.67
2022-11-29T11:47:20.802Z,29.93
2022-11-29T11:49:51.165Z,31.13
2022-11-29T11:52:23.173Z,32.37
2022-11-29T11:54:54.671Z,28.00
2022-11-29T11:57:25.975Z,30.40
2022-11-29T11:59:57.890Z,30.90
2022-11-29T12:02:31.107Z,25.77
2022-11-29T12:05:03.382Z,27.77
2022-11-29T12:08:06.752Z,28.00
2022-11-29T12:10:28.352Z,32.87
2022-11-29T12:13:00.538Z,29.67
2022-11-29T12:15:32.527Z,29.93
2022-11-29T12:18:05.361Z,25.30
2022-11-29T12:20:40.651Z,29.70
2022-11-29T12:23:24.281Z,34.70
2022-11-29T12:25:57.235Z,34.93
2022-11-29T12:28:31.592Z,27.30
2022-11-29T12:31:11.807Z,32.20
2022-11-29T12:33:48.748Z,34.27
2022-11-29T12:36:29.989Z,26.43
2022-11-29T12:39:12.250Z,26.73
2022-11-29T12:41:53.655Z,27.83
2022-11-29T12:44:38.415Z,32.10
2022-11-29T12:47:35.346Z,27.37
2022-11-29T12:50:13.977Z,25.57
2022-11-29T12:52:51.728Z,26.57
2022-11-29T12:55:24.887Z,29.57
2022-11-29T12:58:04.113Z,23.40
2022-11-29T13:00:41.797Z,26.10
2022-11-29T13:03:20.536Z,22.67
2022-11-29T13:06:01.230Z,29.17
2022-11-29T13:08:48.276Z,24.40
2022-11-29T13:11:23.023Z,26.03
2022-11-29T13:14:08.327Z,25.63
2022-11-29T13:16:52.422Z,26.23
2022-11-29T13:19:26.149Z,24.00
2022-11-29T13:22:03.257Z,22.27
2022-11-29T13:24:42.415Z,27.03
2022-11-29T13:27:18.223Z,25.50
2022-11-29T13:29:47.433Z,22.30
2022-11-29T13:32:35.178Z,25.83
2022-11-29T13:35:08.621Z,26.80
2022-11-29T13:37:41.963Z,24.03
2022-11-29T13:40:26.931Z,29.53
2022-11-29T13:43:02.329Z,25.30
2022-11-29T13:45:37.462Z,23.97
2022-11-29T13:48:33.801Z,24.03
2022-11-29T13:51:24.563Z,24.03
2022-11-29T13:53:54.116Z,21.77
2022-11-29T13:56:36.759Z,24.00
2022-11-29T13:59:15.214Z,28.23
2022-11-29T14:01:51.565Z,19.70
2022-11-29T14:04:31.312Z,24.90
2022-11-29T14:07:18.775Z,25.13
2022-11-29T14:09:52.155Z,23.80
2022-11-29T14:12:38.263Z,17.60
2022-11-29T14:15:24.373Z,26.87
2022-11-29T14:17:56.052Z,22.47
2022-11-29T14:20:57.011Z,27.17
2022-11-29T14:23:42.366Z,21.10
2022-11-29T14:26:31.082Z,23.20
2022-11-29T14:29:00.537Z,23.30
2022-11-29T14:31:48.633Z,20.63
2022-11-29T14:34:29.879Z,21.40
2022-11-29T14:37:06.499Z,24.70
2022-11-29T14:39:43.657Z,21.83
2022-11-29T14:42:19.385Z,27.20
2022-11-29T14:44:52.125Z,22.07
2022-11-29T14:47:29.792Z,23.80
2022-11-29T14:50:00.446Z,22.53
2022-11-29T14:52:32.500Z,24.97
2022-11-29T14:55:07.690Z,21.83
2022-11-29T14:57:55.505Z,28.60
2022-11-29T15:00:25.964Z,22.90
2022-11-29T15:02:57.616Z,21.57
2022-11-29T15:05:33.589Z,26.40
2022-11-29T15:08:11.529Z,21.97
2022-11-29T15:10:43.268Z,23.90
2022-11-29T15:13:14.804Z,26.73
2022-11-29T15:16:15.197Z,25.00
2022-11-29T15:19:02.848Z,30.73
2022-11-29T15:33:20.378Z,30.57
2022-11-29T15:35:50.993Z,31.63
2022-11-29T15:38:20.304Z,29.60
2022-11-29T15:40:53.535Z,32.17
2022-11-29T15:43:25.617Z,32.67
2022-11-29T15:45:55.546Z,32.57
2022-11-29T15:48:27.243Z,31.03
2022-11-29T15:51:02.838Z,34.47
2022-11-29T15:53:35.605Z,34.07
2022-11-29T15:56:07.506Z,32.47
2022-11-29T15:58:36.901Z,37.13
2022-11-29T16:01:05.856Z,37.67
2022-11-29T16:03:39.093Z,33.50
2022-11-29T16:06:16.670Z,39.80
2022-11-29T16:08:45.624Z,37.47
2022-11-29T16:11:18.076Z,35.67
2022-11-29T16:14:03.710Z,33.37
2022-11-29T16:16:35.554Z,37.70
2022-11-29T16:19:19.598Z,39.67
2022-11-29T16:21:59.132Z,36.10
2022-11-29T16:24:27.803Z,37.63
2022-11-29T16:26:56.354Z,36.47
2022-11-29T16:29:29.544Z,40.50
2022-11-29T16:31:58.087Z,34.10
2022-11-29T16:34:33.237Z,41.50
2022-11-29T16:37:03.871Z,38.80
2022-11-29T16:39:32.442Z,37.03
2022-11-29T16:42:08.877Z,39.63
2022-11-29T16:44:56.183Z,38.87
2022-11-29T16:47:25.763Z,41.23
2022-11-29T16:50:14.131Z,43.63
2022-11-29T16:52:42.286Z,36.40
2022-11-29T16:55:10.422Z,31.20
2022-11-29T16:57:39.481Z,40.60
2022-11-29T17:00:24.713Z,42.83
2022-11-29T17:02:52.825Z,41.57
2022-11-29T17:05:22.310Z,36.13
2022-11-29T17:07:51.160Z,37.20
2022-11-29T17:10:25.111Z,41.00
2022-11-29T17:12:55.946Z,38.63
2022-11-29T17:15:24.081Z,38.77
2022-11-29T17:17:52.148Z,42.17
2022-11-29T17:20:21.598Z,34.13
2022-11-29T17:22:49.698Z,38.37
2022-11-29T17:25:17.961Z,42.47
2022-11-29T17:27:46.245Z,41.03
2022-11-29T17:30:15.133Z,41.37
2022-11-29T17:32:43.170Z,43.33
2022-11-29T17:35:11.513Z,43.20
2022-11-29T17:37:40.935Z,46.33
2022-11-29T17:40:10.096Z,40.83
2022-11-29T17:42:38.396Z,45.03
2022-11-29T17:45:07.137Z,48.73
2022-11-29T17:47:35.211Z,45.70
2022-11-29T17:50:03.290Z,45.53
2022-11-29T17:52:31.360Z,47.53
2022-11-29T17:55:00.843Z,45.60
2022-11-29T17:57:29.122Z,46.93
2022-11-29T17:59:57.137Z,42.73
2022-11-29T18:02:25.239Z,43.93
2022-11-29T18:04:53.283Z,50.40
2022-11-29T18:07:21.460Z,44.03
2022-11-29T18:09:49.528Z,48.17
2022-11-29T18:12:20.108Z,42.03
2022-11-29T18:14:50.221Z,66.63
2022-11-29T18:17:18.356Z,44.80
2022-11-29T18:19:46.762Z,43.80
2022-11-29T18:22:15.244Z,49.67
2022-11-29T18:24:44.205Z,45.60
2022-11-29T18:27:12.353Z,47.47
2022-11-29T18:29:41.804Z,40.50
2022-11-29T18:32:09.907Z,40.20
2022-11-29T18:34:37.945Z,43.60
2022-11-29T18:37:08.811Z,42.17
2022-11-29T18:39:39.164Z,40.70
2022-11-29T18:42:07.330Z,49.17
2022-11-29T18:44:35.402Z,40.93
2022-11-29T18:47:04.951Z,49.13
2022-11-29T18:49:33.076Z,48.17
2022-11-29T18:52:01.159Z,45.87
2022-11-29T18:54:31.078Z,45.03
2022-11-29T18:56:59.136Z,42.60
2022-11-29T18:59:27.186Z,53.77
2022-11-29T19:01:55.349Z,50.50
2022-11-29T19:04:27.685Z,47.53
2022-11-29T19:06:55.907Z,43.13
2022-11-29T19:09:24.343Z,48.67
2022-11-29T19:11:52.680Z,43.60
2022-11-29T19:14:21.202Z,43.43
2022-11-29T19:16:50.515Z,52.13
2022-11-29T19:19:19.902Z,50.60
2022-11-29T19:21:49.425Z,44.47
2022-11-29T19:24:18.875Z,41.53
2022-11-29T19:26:48.472Z,47.77
2022-11-29T19:29:17.417Z,47.53
2022-11-29T19:31:45.814Z,42.37
2022-11-29T19:34:13.989Z,43.50
2022-11-29T19:36:44.554Z,44.47
2022-11-29T19:39:16.524Z,47.60
2022-11-29T19:41:46.404Z,40.60
2022-11-29T19:44:15.241Z,48.43
2022-11-29T19:46:45.728Z,50.10
2022-11-29T19:49:13.917Z,39.53
2022-11-29T19:51:42.589Z,52.17
2022-11-29T19:54:12.026Z,45.77
2022-11-29T19:56:41.673Z,47.97
2022-11-29T19:59:09.897Z,47.57
2022-11-29T20:01:41.553Z,45.00
2022-11-29T20:04:12.082Z,44.17
2022-11-29T20:06:41.918Z,34.73
2022-11-29T20:09:10.328Z,35.30
2022-11-29T20:11:38.631Z,33.87
2022-11-29T20:14:09.273Z,34.53
2022-11-29T20:16:39.142Z,32.03
2022-11-29T20:19:11.509Z,28.03
2022-11-29T20:21:43.671Z,28.70
2022-11-29T20:24:12.982Z,24.80
2022-11-29T20:26:42.825Z,26.37
2022-11-29T20:29:13.163Z,23.17
2022-11-29T20:31:47.932Z,27.80
2022-11-29T20:34:18.664Z,22.97
2022-11-29T20:37:13.383Z,24.93
2022-11-29T20:39:48.329Z,27.87
2022-11-29T20:42:45.358Z,25.70
2022-11-29T20:45:16.872Z,26.73
2022-11-29T20:47:51.320Z,27.90
2022-11-29T20:50:23.544Z,24.90
2022-11-29T20:53:03.956Z,20.00
2022-11-29T20:55:32.240Z,20.80
2022-11-29T20:58:03.107Z,22.63
2022-11-29T21:00:32.682Z,24.07
2022-11-29T21:03:01.048Z,24.47
2022-11-29T21:05:29.184Z,22.57
2022-11-29T21:07:57.256Z,23.77
2022-11-29T21:10:25.421Z,26.10
2022-11-29T21:12:53.984Z,22.10
2022-11-29T21:15:23.082Z,24.23
2022-11-29T21:17:56.295Z,21.70
2022-11-29T21:20:26.723Z,22.40
2022-11-29T21:23:01.638Z,23.80
2022-11-29T21:25:44.259Z,24.20
2022-11-29T21:28:14.412Z,25.63
2022-11-29T21:30:43.521Z,26.97
2022-11-29T21:33:13.395Z,23.93
2022-11-29T21:35:41.531Z,27.37
2022-11-29T21:38:19.055Z,22.43
2022-11-29T21:40:47.642Z,24.87
2022-11-29T21:43:15.705Z,21.07
2022-11-29T21:45:43.765Z,23.23
2022-11-29T21:48:27.060Z,24.23
2022-11-29T21:50:56.368Z,21.93
2022-11-29T21:53:24.852Z,27.93
2022-11-29T21:55:58.034Z,22.30
2022-11-29T21:58:26.278Z,27.10
2022-11-29T22:00:54.723Z,27.57
2022-11-29T22:03:24.342Z,24.73
2022-11-29T22:05:52.454Z,25.43
2022-11-29T22:08:20.525Z,26.10
2022-11-29T22:10:48.618Z,24.30
2022-11-29T22:13:16.678Z,23.93
2022-11-29T22:15:44.767Z,27.33
2022-11-29T22:18:12.803Z,26.43
2022-11-29T22:20:42.223Z,26.40
2022-11-29T22:23:10.222Z,28.07
2022-11-29T22:25:38.311Z,27.70
2022-11-29T22:28:06.462Z,25.37
2022-11-29T22:30:35.831Z,32.10
2022-11-29T22:33:05.739Z,27.87
2022-11-29T22:35:42.921Z,27.07
2022-11-29T22:38:12.327Z,31.27
2022-11-29T22:40:40.561Z,24.73
2022-11-29T22:43:08.638Z,28.17
2022-11-29T22:45:36.640Z,24.73
2022-11-29T22:48:04.970Z,34.83
2022-11-29T22:50:32.988Z,29.90
2022-11-29T22:53:01.028Z,31.93
2022-11-29T22:55:30.515Z,29.93
2022-11-29T22:57:58.573Z,25.30
2022-11-29T23:00:26.714Z,25.20
2022-11-29T23:02:57.754Z,25.30
2022-11-29T23:05:30.819Z,24.97
2022-11-29T23:08:00.408Z,29.50
2022-11-29T23:10:29.907Z,23.17
2022-11-29T23:12:58.023Z,23.30
2022-11-29T23:15:26.121Z,26.80
2022-11-29T23:17:54.174Z,30.07
2022-11-29T23:20:22.211Z,23.13
2022-11-29T23:22:50.309Z,21.37
2022-11-29T23:25:18.532Z,23.23
2022-11-29T23:27:50.698Z,21.10
2022-11-29T23:30:18.880Z,21.33
2022-11-29T23:32:46.892Z,21.00
2022-11-29T23:35:15.140Z,22.93
2022-11-29T23:37:43.191Z,29.23
2022-11-29T23:40:12.174Z,30.03
2022-11-29T23:42:46.987Z,30.37
2022-11-29T23:45:16.918Z,32.77
2022-11-29T23:47:44.947Z,29.90
2022-11-29T23:50:13.474Z,28.37
2022-11-29T23:52:41.564Z,29.27
2022-11-29T23:55:12.618Z,30.77
2022-11-29T23:57:40.802Z,30.10
